sensor_id;sensor_type;location;lat;lon;timestamp;P1;durP1;ratioP1;P2;durP2;ratioP2
7361;SDS011;3721;44.490;11.220;2022-11-20T00:00:21;47.87;;;23.30;;
7361;SDS011;3721;44.490;11.220;2022-11-20T00:02:47;48.90;;;22.70;;
7361;SDS011;3721;44.490;11.220;2022-11-20T00:05:13;42.10;;;23.03;;
7361;SDS011;3721;44.490;11.220;2022-11-20T00:07:39;46.47;;;22.80;;
7361;SDS011;3721;44.490;11.220;2022-11-20T00:16:04;43.10;;;23.87;;
7361;SDS011;3721;44.490;11.220;2022-11-20T00:18:42;49.07;;;24.53;;
7361;SDS011;3721;44.490;11.220;2022-11-20T00:21:49;43.73;;;22.67;;
7361;SDS011;3721;44.490;11.220;2022-11-20T00:24:56;46.63;;;22.00;;
7361;SDS011;3721;44.490;11.220;2022-11-20T00:27:25;40.83;;;22.90;;
7361;SDS011;3721;44.490;11.220;2022-11-20T00:30:00;37.27;;;20.93;;
7361;SDS011;3721;44.490;11.220;2022-11-20T00:32:26;48.57;;;22.00;;
7361;SDS011;3721;44.490;11.220;2022-11-20T00:34:51;46.97;;;23.77;;
7361;SDS011;3721;44.490;11.220;2022-11-20T00:37:31;45.60;;;22.23;;
7361;SDS011;3721;44.490;11.220;2022-11-20T00:42:59;43.37;;;23.10;;
7361;SDS011;3721;44.490;11.220;2022-11-20T00:48:38;43.97;;;21.40;;
7361;SDS011;3721;44.490;11.220;2022-11-20T00:51:14;34.27;;;21.70;;
7361;SDS011;3721;44.490;11.220;2022-11-20T00:53:55;47.17;;;23.97;;
7361;SDS011;3721;44.490;11.220;2022-11-20T00:56:53;39.23;;;21.13;;
7361;SDS011;3721;44.490;11.220;2022-11-20T00:59:55;41.90;;;22.87;;
7361;SDS011;3721;44.490;11.220;2022-11-20T01:02:46;51.90;;;23.47;;
7361;SDS011;3721;44.490;11.220;2022-11-20T01:05:29;56.63;;;24.60;;
7361;SDS011;3721;44.490;11.220;2022-11-20T01:08:21;46.53;;;23.33;;
7361;SDS011;3721;44.490;11.220;2022-11-20T01:11:57;44.27;;;21.80;;
7361;SDS011;3721;44.490;11.220;2022-11-20T01:14:30;41.40;;;22.27;;
7361;SDS011;3721;44.490;11.220;2022-11-20T01:20:41;40.73;;;20.70;;
7361;SDS011;3721;44.490;11.220;2022-11-20T01:23:32;40.67;;;22.63;;
7361;SDS011;3721;44.490;11.220;2022-11-20T01:26:11;43.93;;;21.77;;
7361;SDS011;3721;44.490;11.220;2022-11-20T01:28:44;40.40;;;21.40;;
7361;SDS011;3721;44.490;11.220;2022-11-20T01:34:52;39.13;;;20.97;;
7361;SDS011;3721;44.490;11.220;2022-11-20T01:37:31;39.20;;;20.97;;
7361;SDS011;3721;44.490;11.220;2022-11-20T01:40:06;39.13;;;20.57;;
7361;SDS011;3721;44.490;11.220;2022-11-20T01:42:32;31.30;;;19.13;;
7361;SDS011;3721;44.490;11.220;2022-11-20T01:48:13;35.73;;;22.00;;
7361;SDS011;3721;44.490;11.220;2022-11-20T01:50:39;43.70;;;22.07;;
7361;SDS011;3721;44.490;11.220;2022-11-20T01:53:07;43.17;;;22.53;;
7361;SDS011;3721;44.490;11.220;2022-11-20T01:55:56;37.63;;;21.50;;
7361;SDS011;3721;44.490;11.220;2022-11-20T01:58:25;41.60;;;20.90;;
7361;SDS011;3721;44.490;11.220;2022-11-20T02:00:58;38.17;;;19.90;;
7361;SDS011;3721;44.490;11.220;2022-11-20T02:03:24;33.20;;;20.20;;
7361;SDS011;3721;44.490;11.220;2022-11-20T02:08:32;38.00;;;20.90;;
7361;SDS011;3721;44.490;11.220;2022-11-20T02:10:58;39.23;;;20.27;;
7361;SDS011;3721;44.490;11.220;2022-11-20T02:13:24;43.30;;;19.93;;
7361;SDS011;3721;44.490;11.220;2022-11-20T02:16:15;32.93;;;18.50;;
7361;SDS011;3721;44.490;11.220;2022-11-20T02:18:53;32.57;;;19.67;;
7361;SDS011;3721;44.490;11.220;2022-11-20T02:24:00;39.03;;;22.70;;
7361;SDS011;3721;44.490;11.220;2022-11-20T02:26:31;34.80;;;19.17;;
7361;SDS011;3721;44.490;11.220;2022-11-20T02:29:19;37.60;;;20.40;;
7361;SDS011;3721;44.490;11.220;2022-11-20T02:31:50;34.40;;;19.43;;
7361;SDS011;3721;44.490;11.220;2022-11-20T02:34:19;40.87;;;19.90;;
7361;SDS011;3721;44.490;11.220;2022-11-20T02:36:44;43.30;;;21.60;;
7361;SDS011;3721;44.490;11.220;2022-11-20T02:39:11;40.20;;;21.70;;
7361;SDS011;3721;44.490;11.220;2022-11-20T02:41:41;44.53;;;21.03;;
7361;SDS011;3721;44.490;11.220;2022-11-20T02:44:07;42.83;;;22.13;;
7361;SDS011;3721;44.490;11.220;2022-11-20T02:46:33;42.57;;;21.50;;
7361;SDS011;3721;44.490;11.220;2022-11-20T02:49:00;42.60;;;22.57;;
7361;SDS011;3721;44.490;11.220;2022-11-20T02:51:29;40.93;;;20.30;;
7361;SDS011;3721;44.490;11.220;2022-11-20T02:53:55;34.40;;;19.10;;
7361;SDS011;3721;44.490;11.220;2022-11-20T02:56:21;46.93;;;22.70;;
7361;SDS011;3721;44.490;11.220;2022-11-20T02:58:47;38.13;;;20.20;;
7361;SDS011;3721;44.490;11.220;2022-11-20T03:01:12;40.83;;;21.73;;
7361;SDS011;3721;44.490;11.220;2022-11-20T03:03:38;44.73;;;22.40;;
7361;SDS011;3721;44.490;11.220;2022-11-20T03:06:04;40.60;;;19.50;;
7361;SDS011;3721;44.490;11.220;2022-11-20T03:08:30;41.03;;;22.10;;
7361;SDS011;3721;44.490;11.220;2022-11-20T03:10:55;38.30;;;19.33;;
7361;SDS011;3721;44.490;11.220;2022-11-20T03:13:21;39.17;;;21.47;;
7361;SDS011;3721;44.490;11.220;2022-11-20T03:15:47;43.63;;;19.80;;
7361;SDS011;3721;44.490;11.220;2022-11-20T03:18:12;38.40;;;20.03;;
7361;SDS011;3721;44.490;11.220;2022-11-20T03:20:38;42.17;;;21.23;;
7361;SDS011;3721;44.490;11.220;2022-11-20T03:23:04;46.57;;;20.67;;
7361;SDS011;3721;44.490;11.220;2022-11-20T03:25:30;44.10;;;22.30;;
7361;SDS011;3721;44.490;11.220;2022-11-20T03:27:56;38.37;;;20.17;;
7361;SDS011;3721;44.490;11.220;2022-11-20T03:30:21;40.80;;;20.97;;
7361;SDS011;3721;44.490;11.220;2022-11-20T03:32:47;43.70;;;21.90;;
7361;SDS011;3721;44.490;11.220;2022-11-20T03:35:13;39.27;;;22.43;;
7361;SDS011;3721;44.490;11.220;2022-11-20T03:37:38;38.23;;;23.10;;
7361;SDS011;3721;44.490;11.220;2022-11-20T03:40:04;45.77;;;21.50;;
7361;SDS011;3721;44.490;11.220;2022-11-20T03:42:30;40.57;;;23.10;;
7361;SDS011;3721;44.490;11.220;2022-11-20T03:45:20;39.80;;;21.77;;
7361;SDS011;3721;44.490;11.220;2022-11-20T03:47:45;48.97;;;23.57;;
7361;SDS011;3721;44.490;11.220;2022-11-20T03:50:11;39.43;;;21.63;;
7361;SDS011;3721;44.490;11.220;2022-11-20T03:52:39;40.07;;;21.37;;
7361;SDS011;3721;44.490;11.220;2022-11-20T03:55:05;36.00;;;20.13;;
7361;SDS011;3721;44.490;11.220;2022-11-20T03:57:31;38.97;;;21.27;;
7361;SDS011;3721;44.490;11.220;2022-11-20T03:59:57;40.77;;;20.80;;
7361;SDS011;3721;44.490;11.220;2022-11-20T04:02:23;40.83;;;21.57;;
7361;SDS011;3721;44.490;11.220;2022-11-20T04:04:48;39.97;;;22.77;;
7361;SDS011;3721;44.490;11.220;2022-11-20T04:07:14;46.80;;;22.90;;
7361;SDS011;3721;44.490;11.220;2022-11-20T04:09:40;38.23;;;20.97;;
7361;SDS011;3721;44.490;11.220;2022-11-20T04:12:06;42.30;;;21.40;;
7361;SDS011;3721;44.490;11.220;2022-11-20T04:14:31;39.70;;;21.37;;
7361;SDS011;3721;44.490;11.220;2022-11-20T04:16:57;42.83;;;23.37;;
7361;SDS011;3721;44.490;11.220;2022-11-20T04:19:22;42.87;;;22.13;;
7361;SDS011;3721;44.490;11.220;2022-11-20T04:21:48;32.50;;;20.83;;
7361;SDS011;3721;44.490;11.220;2022-11-20T04:24:14;37.97;;;19.97;;
7361;SDS011;3721;44.490;11.220;2022-11-20T04:26:39;36.17;;;20.70;;
7361;SDS011;3721;44.490;11.220;2022-11-20T04:29:05;45.60;;;22.10;;
7361;SDS011;3721;44.490;11.220;2022-11-20T04:31:32;43.10;;;21.67;;
7361;SDS011;3721;44.490;11.220;2022-11-20T04:33:59;38.80;;;22.30;;
7361;SDS011;3721;44.490;11.220;2022-11-20T04:36:29;36.83;;;20.47;;
7361;SDS011;3721;44.490;11.220;2022-11-20T04:38:56;43.33;;;20.17;;
7361;SDS011;3721;44.490;11.220;2022-11-20T04:41:24;38.10;;;21.37;;
7361;SDS011;3721;44.490;11.220;2022-11-20T04:43:53;38.80;;;20.90;;
7361;SDS011;3721;44.490;11.220;2022-11-20T04:46:24;38.50;;;21.47;;
7361;SDS011;3721;44.490;11.220;2022-11-20T04:48:51;43.57;;;22.00;;
7361;SDS011;3721;44.490;11.220;2022-11-20T04:51:17;42.53;;;22.30;;
7361;SDS011;3721;44.490;11.220;2022-11-20T04:53:42;38.17;;;21.03;;
7361;SDS011;3721;44.490;11.220;2022-11-20T04:56:09;32.10;;;20.53;;
7361;SDS011;3721;44.490;11.220;2022-11-20T04:58:36;43.47;;;22.60;;
7361;SDS011;3721;44.490;11.220;2022-11-20T05:03:29;35.47;;;20.30;;
7361;SDS011;3721;44.490;11.220;2022-11-20T05:05:54;36.60;;;21.20;;
7361;SDS011;3721;44.490;11.220;2022-11-20T05:08:20;43.13;;;22.07;;
7361;SDS011;3721;44.490;11.220;2022-11-20T05:10:46;39.87;;;21.47;;
7361;SDS011;3721;44.490;11.220;2022-11-20T05:13:11;38.63;;;22.00;;
7361;SDS011;3721;44.490;11.220;2022-11-20T05:15:37;41.93;;;22.80;;
7361;SDS011;3721;44.490;11.220;2022-11-20T05:18:03;43.33;;;22.63;;
7361;SDS011;3721;44.490;11.220;2022-11-20T05:20:28;43.63;;;22.87;;
7361;SDS011;3721;44.490;11.220;2022-11-20T05:22:57;41.60;;;24.33;;
7361;SDS011;3721;44.490;11.220;2022-11-20T05:25:23;47.83;;;23.93;;
7361;SDS011;3721;44.490;11.220;2022-11-20T05:27:48;43.60;;;23.87;;
7361;SDS011;3721;44.490;11.220;2022-11-20T05:30:14;42.23;;;23.73;;
7361;SDS011;3721;44.490;11.220;2022-11-20T05:32:40;38.73;;;22.80;;
7361;SDS011;3721;44.490;11.220;2022-11-20T05:35:06;50.07;;;23.90;;
7361;SDS011;3721;44.490;11.220;2022-11-20T05:37:32;42.37;;;23.00;;
7361;SDS011;3721;44.490;11.220;2022-11-20T05:39:57;42.40;;;21.87;;
7361;SDS011;3721;44.490;11.220;2022-11-20T05:42:23;36.83;;;20.73;;
7361;SDS011;3721;44.490;11.220;2022-11-20T05:44:55;37.90;;;21.50;;
7361;SDS011;3721;44.490;11.220;2022-11-20T05:47:21;39.83;;;22.90;;
7361;SDS011;3721;44.490;11.220;2022-11-20T05:49:46;45.97;;;23.10;;
7361;SDS011;3721;44.490;11.220;2022-11-20T05:52:12;40.40;;;24.23;;
7361;SDS011;3721;44.490;11.220;2022-11-20T05:54:38;38.50;;;20.73;;
7361;SDS011;3721;44.490;11.220;2022-11-20T05:57:03;43.63;;;21.33;;
7361;SDS011;3721;44.490;11.220;2022-11-20T05:59:29;38.63;;;21.60;;
7361;SDS011;3721;44.490;11.220;2022-11-20T06:01:55;37.23;;;22.67;;
7361;SDS011;3721;44.490;11.220;2022-11-20T06:04:20;39.80;;;23.37;;
7361;SDS011;3721;44.490;11.220;2022-11-20T06:06:46;40.07;;;21.43;;
7361;SDS011;3721;44.490;11.220;2022-11-20T06:09:12;41.60;;;22.00;;
7361;SDS011;3721;44.490;11.220;2022-11-20T06:11:37;41.57;;;23.27;;
7361;SDS011;3721;44.490;11.220;2022-11-20T06:14:03;35.43;;;20.80;;
7361;SDS011;3721;44.490;11.220;2022-11-20T06:16:29;44.97;;;23.30;;
7361;SDS011;3721;44.490;11.220;2022-11-20T06:18:54;39.30;;;22.43;;
7361;SDS011;3721;44.490;11.220;2022-11-20T06:21:21;39.57;;;21.70;;
7361;SDS011;3721;44.490;11.220;2022-11-20T06:23:47;39.27;;;22.93;;
7361;SDS011;3721;44.490;11.220;2022-11-20T06:26:21;42.27;;;23.27;;
7361;SDS011;3721;44.490;11.220;2022-11-20T06:28:49;36.70;;;21.20;;
7361;SDS011;3721;44.490;11.220;2022-11-20T06:31:16;42.40;;;21.97;;
7361;SDS011;3721;44.490;11.220;2022-11-20T06:33:43;39.60;;;20.87;;
7361;SDS011;3721;44.490;11.220;2022-11-20T06:36:10;37.03;;;20.77;;
7361;SDS011;3721;44.490;11.220;2022-11-20T06:38:37;33.73;;;18.73;;
7361;SDS011;3721;44.490;11.220;2022-11-20T06:41:04;39.33;;;20.83;;
7361;SDS011;3721;44.490;11.220;2022-11-20T06:43:31;37.60;;;21.17;;
7361;SDS011;3721;44.490;11.220;2022-11-20T06:45:57;40.70;;;21.70;;
7361;SDS011;3721;44.490;11.220;2022-11-20T06:48:25;35.97;;;19.70;;
7361;SDS011;3721;44.490;11.220;2022-11-20T06:50:52;41.83;;;21.23;;
7361;SDS011;3721;44.490;11.220;2022-11-20T06:53:17;33.87;;;19.40;;
7361;SDS011;3721;44.490;11.220;2022-11-20T06:55:44;35.77;;;19.20;;
7361;SDS011;3721;44.490;11.220;2022-11-20T06:58:11;38.70;;;20.93;;
7361;SDS011;3721;44.490;11.220;2022-11-20T07:00:39;37.33;;;20.13;;
7361;SDS011;3721;44.490;11.220;2022-11-20T07:03:06;41.83;;;21.50;;
7361;SDS011;3721;44.490;11.220;2022-11-20T07:05:34;34.40;;;19.83;;
7361;SDS011;3721;44.490;11.220;2022-11-20T07:08:00;37.70;;;20.57;;
7361;SDS011;3721;44.490;11.220;2022-11-20T07:10:26;38.17;;;20.80;;
7361;SDS011;3721;44.490;11.220;2022-11-20T07:12:52;32.10;;;20.37;;
7361;SDS011;3721;44.490;11.220;2022-11-20T07:15:18;35.37;;;20.83;;
7361;SDS011;3721;44.490;11.220;2022-11-20T07:17:46;36.80;;;19.10;;
7361;SDS011;3721;44.490;11.220;2022-11-20T07:20:12;31.10;;;19.27;;
7361;SDS011;3721;44.490;11.220;2022-11-20T07:22:38;41.40;;;20.30;;
7361;SDS011;3721;44.490;11.220;2022-11-20T07:25:04;34.27;;;19.67;;
7361;SDS011;3721;44.490;11.220;2022-11-20T07:27:30;31.73;;;18.93;;
7361;SDS011;3721;44.490;11.220;2022-11-20T07:29:56;27.50;;;17.80;;
7361;SDS011;3721;44.490;11.220;2022-11-20T07:32:22;32.40;;;19.60;;
7361;SDS011;3721;44.490;11.220;2022-11-20T07:34:48;30.10;;;18.07;;
7361;SDS011;3721;44.490;11.220;2022-11-20T07:37:14;32.50;;;18.50;;
7361;SDS011;3721;44.490;11.220;2022-11-20T07:39:40;28.63;;;17.90;;
7361;SDS011;3721;44.490;11.220;2022-11-20T07:42:06;30.93;;;19.87;;
7361;SDS011;3721;44.490;11.220;2022-11-20T07:44:33;33.63;;;20.07;;
7361;SDS011;3721;44.490;11.220;2022-11-20T07:46:59;32.00;;;19.97;;
7361;SDS011;3721;44.490;11.220;2022-11-20T07:49:24;32.90;;;17.57;;
7361;SDS011;3721;44.490;11.220;2022-11-20T07:51:50;27.73;;;19.70;;
7361;SDS011;3721;44.490;11.220;2022-11-20T07:54:18;38.10;;;20.93;;
7361;SDS011;3721;44.490;11.220;2022-11-20T07:56:44;39.30;;;20.80;;
7361;SDS011;3721;44.490;11.220;2022-11-20T07:59:10;35.07;;;19.83;;
7361;SDS011;3721;44.490;11.220;2022-11-20T08:01:37;36.80;;;19.37;;
7361;SDS011;3721;44.490;11.220;2022-11-20T08:04:03;31.20;;;18.30;;
7361;SDS011;3721;44.490;11.220;2022-11-20T08:06:28;32.73;;;19.27;;
7361;SDS011;3721;44.490;11.220;2022-11-20T08:08:54;38.70;;;21.00;;
7361;SDS011;3721;44.490;11.220;2022-11-20T08:11:20;33.03;;;19.90;;
7361;SDS011;3721;44.490;11.220;2022-11-20T08:14:04;33.90;;;19.20;;
7361;SDS011;3721;44.490;11.220;2022-11-20T08:16:43;43.33;;;22.00;;
7361;SDS011;3721;44.490;11.220;2022-11-20T08:19:11;35.17;;;20.60;;
7361;SDS011;3721;44.490;11.220;2022-11-20T08:21:40;40.23;;;20.10;;
7361;SDS011;3721;44.490;11.220;2022-11-20T08:24:07;32.63;;;17.87;;
7361;SDS011;3721;44.490;11.220;2022-11-20T08:26:34;30.77;;;17.93;;
7361;SDS011;3721;44.490;11.220;2022-11-20T08:29:00;39.73;;;19.10;;
7361;SDS011;3721;44.490;11.220;2022-11-20T08:31:26;35.87;;;18.90;;
7361;SDS011;3721;44.490;11.220;2022-11-20T08:33:52;31.57;;;16.80;;
7361;SDS011;3721;44.490;11.220;2022-11-20T08:36:19;34.83;;;17.80;;
7361;SDS011;3721;44.490;11.220;2022-11-20T08:38:52;31.13;;;16.87;;
7361;SDS011;3721;44.490;11.220;2022-11-20T08:41:19;36.37;;;17.57;;
7361;SDS011;3721;44.490;11.220;2022-11-20T08:44:07;32.03;;;17.47;;
7361;SDS011;3721;44.490;11.220;2022-11-20T08:46:34;30.50;;;17.23;;
7361;SDS011;3721;44.490;11.220;2022-11-20T08:49:02;32.60;;;18.43;;
7361;SDS011;3721;44.490;11.220;2022-11-20T08:51:29;36.37;;;19.73;;
7361;SDS011;3721;44.490;11.220;2022-11-20T08:53:55;35.13;;;18.20;;
7361;SDS011;3721;44.490;11.220;2022-11-20T08:56:20;36.87;;;19.20;;
7361;SDS011;3721;44.490;11.220;2022-11-20T08:58:46;41.80;;;20.20;;
7361;SDS011;3721;44.490;11.220;2022-11-20T09:01:12;36.97;;;19.40;;
7361;SDS011;3721;44.490;11.220;2022-11-20T09:03:37;37.47;;;19.47;;
7361;SDS011;3721;44.490;11.220;2022-11-20T09:06:04;33.23;;;17.83;;
7361;SDS011;3721;44.490;11.220;2022-11-20T09:08:32;38.53;;;20.00;;
7361;SDS011;3721;44.490;11.220;2022-11-20T09:10:58;30.83;;;18.80;;
7361;SDS011;3721;44.490;11.220;2022-11-20T09:13:24;36.77;;;19.20;;
7361;SDS011;3721;44.490;11.220;2022-11-20T09:15:55;36.37;;;20.03;;
7361;SDS011;3721;44.490;11.220;2022-11-20T09:18:22;33.10;;;19.23;;
7361;SDS011;3721;44.490;11.220;2022-11-20T09:20:49;42.37;;;20.80;;
7361;SDS011;3721;44.490;11.220;2022-11-20T09:23:15;37.67;;;19.80;;
7361;SDS011;3721;44.490;11.220;2022-11-20T09:25:41;43.00;;;21.20;;
7361;SDS011;3721;44.490;11.220;2022-11-20T09:28:07;35.67;;;18.70;;
7361;SDS011;3721;44.490;11.220;2022-11-20T09:30:33;39.13;;;19.17;;
7361;SDS011;3721;44.490;11.220;2022-11-20T09:32:58;40.30;;;19.40;;
7361;SDS011;3721;44.490;11.220;2022-11-20T09:35:24;34.33;;;18.43;;
7361;SDS011;3721;44.490;11.220;2022-11-20T09:37:49;36.60;;;20.43;;
7361;SDS011;3721;44.490;11.220;2022-11-20T09:40:28;37.00;;;21.10;;
7361;SDS011;3721;44.490;11.220;2022-11-20T09:48:52;36.33;;;21.50;;
7361;SDS011;3721;44.490;11.220;2022-11-20T09:54:35;33.73;;;20.00;;
7361;SDS011;3721;44.490;11.220;2022-11-20T09:57:10;40.77;;;23.60;;
7361;SDS011;3721;44.490;11.220;2022-11-20T09:59:57;45.13;;;23.40;;
7361;SDS011;3721;44.490;11.220;2022-11-20T10:02:29;37.17;;;21.83;;
7361;SDS011;3721;44.490;11.220;2022-11-20T10:05:06;48.03;;;25.70;;
7361;SDS011;3721;44.490;11.220;2022-11-20T10:07:44;41.60;;;24.90;;
7361;SDS011;3721;44.490;11.220;2022-11-20T10:10:46;45.07;;;24.60;;
7361;SDS011;3721;44.490;11.220;2022-11-20T10:16:02;49.50;;;25.83;;
7361;SDS011;3721;44.490;11.220;2022-11-20T10:21:24;40.87;;;23.27;;
7361;SDS011;3721;44.490;11.220;2022-11-20T10:24:04;47.37;;;25.93;;
7361;SDS011;3721;44.490;11.220;2022-11-20T10:29:39;43.13;;;24.60;;
7361;SDS011;3721;44.490;11.220;2022-11-20T10:32:18;39.20;;;23.30;;
7361;SDS011;3721;44.490;11.220;2022-11-20T10:37:18;50.20;;;24.73;;
7361;SDS011;3721;44.490;11.220;2022-11-20T10:42:31;47.43;;;25.07;;
7361;SDS011;3721;44.490;11.220;2022-11-20T10:45:09;40.73;;;23.23;;
7361;SDS011;3721;44.490;11.220;2022-11-20T10:47:38;40.43;;;24.27;;
7361;SDS011;3721;44.490;11.220;2022-11-20T10:50:05;43.90;;;23.57;;
7361;SDS011;3721;44.490;11.220;2022-11-20T11:01:02;48.97;;;26.10;;
7361;SDS011;3721;44.490;11.220;2022-11-20T11:03:39;48.47;;;23.40;;
7361;SDS011;3721;44.490;11.220;2022-11-20T11:09:04;44.80;;;24.03;;
7361;SDS011;3721;44.490;11.220;2022-11-20T11:11:37;47.10;;;25.87;;
7361;SDS011;3721;44.490;11.220;2022-11-20T11:14:04;47.60;;;26.70;;
7361;SDS011;3721;44.490;11.220;2022-11-20T11:16:31;55.00;;;27.23;;
7361;SDS011;3721;44.490;11.220;2022-11-20T11:19:06;49.63;;;24.57;;
7361;SDS011;3721;44.490;11.220;2022-11-20T11:21:37;49.53;;;27.17;;
7361;SDS011;3721;44.490;11.220;2022-11-20T11:24:15;51.80;;;26.77;;
7361;SDS011;3721;44.490;11.220;2022-11-20T11:27:00;53.30;;;26.40;;
7361;SDS011;3721;44.490;11.220;2022-11-20T11:29:30;44.33;;;25.80;;
7361;SDS011;3721;44.490;11.220;2022-11-20T11:32:11;41.97;;;24.87;;
7361;SDS011;3721;44.490;11.220;2022-11-20T11:34:42;59.60;;;25.90;;
7361;SDS011;3721;44.490;11.220;2022-11-20T11:37:18;49.00;;;23.80;;
7361;SDS011;3721;44.490;11.220;2022-11-20T11:39:49;47.07;;;25.97;;
7361;SDS011;3721;44.490;11.220;2022-11-20T11:42:17;47.73;;;25.40;;
7361;SDS011;3721;44.490;11.220;2022-11-20T11:44:44;46.23;;;26.07;;
7361;SDS011;3721;44.490;11.220;2022-11-20T11:47:31;41.40;;;23.23;;
7361;SDS011;3721;44.490;11.220;2022-11-20T11:52:41;38.83;;;22.63;;
7361;SDS011;3721;44.490;11.220;2022-11-20T12:00:25;36.90;;;20.93;;
7361;SDS011;3721;44.490;11.220;2022-11-20T12:16:17;40.87;;;21.27;;
7361;SDS011;3721;44.490;11.220;2022-11-20T12:18:44;39.73;;;20.37;;
7361;SDS011;3721;44.490;11.220;2022-11-20T12:24:07;37.53;;;21.53;;
7361;SDS011;3721;44.490;11.220;2022-11-20T12:29:39;29.40;;;15.13;;
7361;SDS011;3721;44.490;11.220;2022-11-20T12:37:48;31.33;;;17.90;;
7361;SDS011;3721;44.490;11.220;2022-11-20T12:43:08;28.77;;;15.97;;
7361;SDS011;3721;44.490;11.220;2022-11-20T12:54:01;27.43;;;14.37;;
7361;SDS011;3721;44.490;11.220;2022-11-20T12:56:50;27.90;;;15.27;;
7361;SDS011;3721;44.490;11.220;2022-11-20T13:02:23;31.10;;;17.03;;
7361;SDS011;3721;44.490;11.220;2022-11-20T13:08:26;34.10;;;19.00;;
7361;SDS011;3721;44.490;11.220;2022-11-20T13:11:03;37.93;;;19.47;;
7361;SDS011;3721;44.490;11.220;2022-11-20T13:13:43;35.27;;;17.10;;
7361;SDS011;3721;44.490;11.220;2022-11-20T13:18:44;30.60;;;15.77;;
7361;SDS011;3721;44.490;11.220;2022-11-20T13:21:34;28.40;;;16.23;;
7361;SDS011;3721;44.490;11.220;2022-11-20T13:24:19;26.43;;;15.60;;
7361;SDS011;3721;44.490;11.220;2022-11-20T13:26:47;27.97;;;15.43;;
7361;SDS011;3721;44.490;11.220;2022-11-20T13:29:29;25.33;;;13.20;;
7361;SDS011;3721;44.490;11.220;2022-11-20T13:37:48;23.03;;;11.80;;
7361;SDS011;3721;44.490;11.220;2022-11-20T13:40:25;22.90;;;12.70;;
7361;SDS011;3721;44.490;11.220;2022-11-20T13:42:55;21.97;;;11.50;;
7361;SDS011;3721;44.490;11.220;2022-11-20T13:45:53;24.50;;;12.00;;
7361;SDS011;3721;44.490;11.220;2022-11-20T13:48:20;20.80;;;12.13;;
7361;SDS011;3721;44.490;11.220;2022-11-20T13:50:53;23.00;;;12.40;;
7361;SDS011;3721;44.490;11.220;2022-11-20T13:53:28;19.70;;;10.73;;
7361;SDS011;3721;44.490;11.220;2022-11-20T13:59:08;22.97;;;11.53;;
7361;SDS011;3721;44.490;11.220;2022-11-20T14:01:59;18.40;;;11.50;;
7361;SDS011;3721;44.490;11.220;2022-11-20T14:04:26;30.83;;;12.53;;
7361;SDS011;3721;44.490;11.220;2022-11-20T14:06:57;19.70;;;11.83;;
7361;SDS011;3721;44.490;11.220;2022-11-20T14:09:30;20.03;;;11.67;;
7361;SDS011;3721;44.490;11.220;2022-11-20T14:11:57;20.47;;;11.40;;
7361;SDS011;3721;44.490;11.220;2022-11-20T14:14:25;19.20;;;11.00;;
7361;SDS011;3721;44.490;11.220;2022-11-20T14:17:05;20.00;;;10.70;;
7361;SDS011;3721;44.490;11.220;2022-11-20T14:19:42;18.93;;;10.23;;
7361;SDS011;3721;44.490;11.220;2022-11-20T14:22:24;18.30;;;10.60;;
7361;SDS011;3721;44.490;11.220;2022-11-20T14:25:01;19.27;;;10.10;;
7361;SDS011;3721;44.490;11.220;2022-11-20T14:27:27;18.27;;;10.37;;
7361;SDS011;3721;44.490;11.220;2022-11-20T14:29:53;14.93;;;10.07;;
7361;SDS011;3721;44.490;11.220;2022-11-20T14:32:20;16.20;;;9.50;;
7361;SDS011;3721;44.490;11.220;2022-11-20T14:34:50;16.57;;;9.50;;
7361;SDS011;3721;44.490;11.220;2022-11-20T14:37:35;15.33;;;8.80;;
7361;SDS011;3721;44.490;11.220;2022-11-20T14:40:04;20.93;;;9.13;;
7361;SDS011;3721;44.490;11.220;2022-11-20T14:42:46;19.10;;;9.90;;
7361;SDS011;3721;44.490;11.220;2022-11-20T14:45:12;21.53;;;8.77;;
7361;SDS011;3721;44.490;11.220;2022-11-20T14:47:38;15.90;;;8.60;;
7361;SDS011;3721;44.490;11.220;2022-11-20T14:50:19;18.70;;;9.83;;
7361;SDS011;3721;44.490;11.220;2022-11-20T14:52:52;17.30;;;8.70;;
7361;SDS011;3721;44.490;11.220;2022-11-20T14:57:55;15.77;;;8.40;;
7361;SDS011;3721;44.490;11.220;2022-11-20T15:00:22;15.80;;;8.97;;
7361;SDS011;3721;44.490;11.220;2022-11-20T15:02:48;13.10;;;7.80;;
7361;SDS011;3721;44.490;11.220;2022-11-20T15:05:16;18.67;;;8.00;;
7361;SDS011;3721;44.490;11.220;2022-11-20T15:07:47;18.90;;;8.90;;
7361;SDS011;3721;44.490;11.220;2022-11-20T15:10:31;13.83;;;7.57;;
7361;SDS011;3721;44.490;11.220;2022-11-20T15:13:00;11.80;;;7.60;;
7361;SDS011;3721;44.490;11.220;2022-11-20T15:18:13;13.70;;;8.13;;
7361;SDS011;3721;44.490;11.220;2022-11-20T15:20:41;15.90;;;7.70;;
7361;SDS011;3721;44.490;11.220;2022-11-20T15:23:11;19.53;;;8.60;;
7361;SDS011;3721;44.490;11.220;2022-11-20T15:25:39;12.67;;;7.73;;
7361;SDS011;3721;44.490;11.220;2022-11-20T15:28:11;13.70;;;7.93;;
7361;SDS011;3721;44.490;11.220;2022-11-20T15:30:38;21.60;;;7.60;;
7361;SDS011;3721;44.490;11.220;2022-11-20T15:33:04;12.87;;;8.13;;
7361;SDS011;3721;44.490;11.220;2022-11-20T15:35:32;14.90;;;8.07;;
7361;SDS011;3721;44.490;11.220;2022-11-20T15:37:58;15.13;;;8.93;;
7361;SDS011;3721;44.490;11.220;2022-11-20T15:40:23;15.40;;;8.73;;
7361;SDS011;3721;44.490;11.220;2022-11-20T15:42:49;15.30;;;8.70;;
7361;SDS011;3721;44.490;11.220;2022-11-20T15:46:16;14.40;;;8.40;;
7361;SDS011;3721;44.490;11.220;2022-11-20T15:48:46;18.80;;;10.27;;
7361;SDS011;3721;44.490;11.220;2022-11-20T15:51:21;17.63;;;10.40;;
7361;SDS011;3721;44.490;11.220;2022-11-20T15:53:48;17.60;;;9.97;;
7361;SDS011;3721;44.490;11.220;2022-11-20T15:56:14;13.70;;;9.10;;
7361;SDS011;3721;44.490;11.220;2022-11-20T15:58:40;19.40;;;9.70;;
7361;SDS011;3721;44.490;11.220;2022-11-20T16:01:12;19.60;;;11.27;;
7361;SDS011;3721;44.490;11.220;2022-11-20T16:03:40;18.20;;;10.63;;
7361;SDS011;3721;44.490;11.220;2022-11-20T16:06:06;19.90;;;10.73;;
7361;SDS011;3721;44.490;11.220;2022-11-20T16:08:32;14.80;;;10.50;;
7361;SDS011;3721;44.490;11.220;2022-11-20T16:10:58;18.13;;;10.83;;
7361;SDS011;3721;44.490;11.220;2022-11-20T16:13:23;24.73;;;11.83;;
7361;SDS011;3721;44.490;11.220;2022-11-20T16:16:10;15.03;;;9.20;;
7361;SDS011;3721;44.490;11.220;2022-11-20T16:18:44;21.97;;;9.70;;
7361;SDS011;3721;44.490;11.220;2022-11-20T16:21:11;13.90;;;9.43;;
7361;SDS011;3721;44.490;11.220;2022-11-20T16:23:38;20.87;;;10.30;;
7361;SDS011;3721;44.490;11.220;2022-11-20T16:26:11;18.20;;;10.10;;
7361;SDS011;3721;44.490;11.220;2022-11-20T16:28:38;18.13;;;10.00;;
7361;SDS011;3721;44.490;11.220;2022-11-20T16:31:22;18.03;;;8.57;;
7361;SDS011;3721;44.490;11.220;2022-11-20T16:33:49;19.73;;;9.87;;
7361;SDS011;3721;44.490;11.220;2022-11-20T16:36:19;14.37;;;9.40;;
7361;SDS011;3721;44.490;11.220;2022-11-20T16:38:51;15.60;;;9.93;;
7361;SDS011;3721;44.490;11.220;2022-11-20T16:41:21;23.07;;;9.70;;
7361;SDS011;3721;44.490;11.220;2022-11-20T16:43:51;19.10;;;9.70;;
7361;SDS011;3721;44.490;11.220;2022-11-20T16:46:22;20.07;;;9.43;;
7361;SDS011;3721;44.490;11.220;2022-11-20T16:48:53;16.13;;;9.13;;
7361;SDS011;3721;44.490;11.220;2022-11-20T16:51:20;19.73;;;9.63;;
7361;SDS011;3721;44.490;11.220;2022-11-20T16:53:46;19.53;;;9.70;;
7361;SDS011;3721;44.490;11.220;2022-11-20T16:56:19;15.70;;;8.80;;
7361;SDS011;3721;44.490;11.220;2022-11-20T16:58:47;21.73;;;9.90;;
7361;SDS011;3721;44.490;11.220;2022-11-20T17:01:15;16.27;;;9.00;;
7361;SDS011;3721;44.490;11.220;2022-11-20T17:03:44;17.20;;;9.67;;
7361;SDS011;3721;44.490;11.220;2022-11-20T17:06:15;16.00;;;8.90;;